Time;durP1;ratioP1;P1;durP2;ratioP2;P2;SDS_P1;SDS_P2;PMS_P1;PMS_P2;Temp;Humidity;BMP_temperature;BMP_pressure;BME280_temperature;BME280_humidity;BME280_pressure;Samples;Min_cycle;Max_cycle;Signal;HPM_P1;HPM_P2
2023/12/08 00:00:20;;;;;;;14.02;10.52;;;;;;;0.92;100.00;100731.72;1033241;28;20723;-90
2023/12/08 00:00:51;;;;;;;15.63;10.75;;;;;;;0.88;100.00;100730.41;1031106;28;20372;-89
2023/12/08 00:01:23;;;;;;;14.25;11.55;;;;;;;0.86;100.00;100735.81;1029930;28;20389;-91
2023/12/08 00:01:54;;;;;;;14.35;10.63;;;;;;;0.83;100.00;100733.50;1031160;28;20677;-91
2023/12/08 00:02:26;;;;;;;12.05;10.60;;;;;;;0.90;100.00;100750.25;1037629;28;21904;-91
2023/12/08 00:02:58;;;;;;;12.50;10.13;;;;;;;0.95;100.00;100743.69;1032732;28;20294;-90
2023/12/08 00:03:29;;;;;;;12.10;9.55;;;;;;;0.92;100.00;100748.28;1030159;28;20306;-90
2023/12/08 00:04:01;;;;;;;12.85;10.15;;;;;;;0.90;100.00;100750.25;1030006;28;20294;-91
2023/12/08 00:04:32;;;;;;;14.77;9.85;;;;;;;0.81;100.00;100750.31;1037695;28;20297;-91
2023/12/08 00:05:04;;;;;;;13.85;9.95;;;;;;;0.92;100.00;100752.72;1030757;28;20486;-89
2023/12/08 00:05:36;;;;;;;14.70;10.35;;;;;;;0.85;100.00;100755.13;1036821;28;20314;-91
2023/12/08 00:06:08;;;;;;;12.27;9.15;;;;;;;0.77;100.00;100751.63;1034251;28;20848;-90
2023/12/08 00:06:40;;;;;;;16.70;11.07;;;;;;;0.91;100.00;100746.63;1033841;28;20406;-88
2023/12/08 00:07:12;;;;;;;16.63;11.63;;;;;;;0.95;100.00;100746.31;1029316;28;20309;-91
2023/12/08 00:07:43;;;;;;;12.35;10.30;;;;;;;1.02;100.00;100732.41;1024877;28;20314;-90
2023/12/08 00:08:15;;;;;;;13.10;10.40;;;;;;;0.98;100.00;100732.91;1027532;28;20330;-90
2023/12/08 00:08:46;;;;;;;11.48;10.15;;;;;;;0.89;100.00;100725.00;1029671;28;20317;-91
2023/12/08 00:09:18;;;;;;;11.60;9.93;;;;;;;0.85;100.00;100725.47;1030080;28;20397;-91
2023/12/08 00:09:50;;;;;;;17.17;10.90;;;;;;;0.81;100.00;100719.69;1033717;28;20309;-91
2023/12/08 00:10:21;;;;;;;13.38;10.63;;;;;;;0.85;100.00;100713.19;1032896;28;20308;-90
2023/12/08 00:10:53;;;;;;;13.27;10.07;;;;;;;1.02;100.00;100715.88;1034231;28;20308;-90
2023/12/08 00:11:24;;;;;;;13.15;10.18;;;;;;;0.87;100.00;100715.66;1030144;28;20306;-91
2023/12/08 00:11:57;;;;;;;14.50;10.77;;;;;;;0.92;100.00;100710.75;1027903;28;20341;-90
2023/12/08 00:12:29;;;;;;;15.20;10.82;;;;;;;0.97;100.00;100729.44;1038508;28;20605;-90
2023/12/08 00:13:01;;;;;;;11.85;9.60;;;;;;;0.99;100.00;100729.28;1037890;28;20327;-90
2023/12/08 00:13:34;;;;;;;13.38;10.35;;;;;;;0.88;100.00;100730.41;1027802;28;20298;-90
2023/12/08 00:14:06;;;;;;;12.30;10.45;;;;;;;1.02;100.00;100727.19;1024980;28;20698;-90
2023/12/08 00:14:37;;;;;;;13.35;9.82;;;;;;;0.99;100.00;100724.88;1024597;28;20309;-90
2023/12/08 00:15:09;;;;;;;12.20;10.07;;;;;;;1.01;100.00;100724.72;1027885;28;20302;-90
2023/12/08 00:15:41;;;;;;;14.18;10.55;;;;;;;0.96;100.00;100719.94;1029115;28;20381;-90
2023/12/08 00:16:12;;;;;;;12.45;9.65;;;;;;;0.96;100.00;100721.75;1032953;28;20306;-90
2023/12/08 00:16:44;;;;;;;12.77;10.65;;;;;;;0.88;100.00;100723.34;1037777;28;20304;-90
2023/12/08 00:17:16;;;;;;;11.43;9.65;;;;;;;0.89;100.00;100727.63;1031428;28;20423;-90
2023/12/08 00:17:48;;;;;;;11.13;9.57;;;;;;;0.92;100.00;100718.63;1032579;28;20663;-90
2023/12/08 00:18:21;;;;;;;13.80;9.95;;;;;;;0.92;100.00;100729.94;1034037;28;20301;-90
2023/12/08 00:18:53;;;;;;;12.38;10.07;;;;;;;0.88;100.00;100718.13;1032891;28;20760;-89
2023/12/08 00:19:25;;;;;;;17.73;10.98;;;;;;;0.88;100.00;100725.97;1025345;29;20337;-90
2023/12/08 00:19:57;;;;;;;14.30;10.77;;;;;;;0.90;100.00;100717.94;1029752;28;20321;-90
2023/12/08 00:20:29;;;;;;;13.30;9.75;;;;;;;0.89;100.00;100711.88;1033407;28;20305;-90
2023/12/08 00:21:01;;;;;;;16.90;9.98;;;;;;;1.02;100.00;100713.25;1032535;28;20313;-91
2023/12/08 00:21:33;;;;;;;11.63;9.38;;;;;;;0.86;100.00;100727.94;1037954;28;20347;-91
2023/12/08 00:22:05;;;;;;;12.40;10.07;;;;;;;0.81;100.00;100706.59;1034238;28;20422;-90
2023/12/08 00:22:36;;;;;;;12.70;9.60;;;;;;;0.88;100.00;100715.50;1042067;28;20980;-90
2023/12/08 00:23:08;;;;;;;12.75;9.73;;;;;;;0.77;100.00;100720.16;1026371;28;20383;-90
2023/12/08 00:23:40;;;;;;;11.90;10.13;;;;;;;0.76;100.00;100721.97;1029885;28;20294;-90
2023/12/08 00:24:11;;;;;;;12.95;11.20;;;;;;;0.81;100.00;100724.94;1034469;28;20675;-90
2023/12/08 00:24:43;;;;;;;13.73;10.55;;;;;;;0.84;100.00;100729.91;1035621;28;20676;-90
2023/12/08 00:25:15;;;;;;;15.98;11.55;;;;;;;0.88;100.00;100741.72;1030963;28;21547;-90
2023/12/08 00:25:46;;;;;;;14.32;11.45;;;;;;;0.93;100.00;100733.38;1039300;28;20320;-91
2023/12/08 00:26:18;;;;;;;14.55;10.10;;;;;;;0.84;100.00;100729.06;1039642;28;20307;-90
2023/12/08 00:26:50;;;;;;;12.48;10.23;;;;;;;0.80;100.00;100736.41;1038234;28;20312;-90
2023/12/08 00:27:21;;;;;;;13.68;10.50;;;;;;;0.72;100.00;100733.75;1036818;28;20414;-90
2023/12/08 00:27:53;;;;;;;12.38;10.60;;;;;;;0.82;100.00;100737.09;1035966;28;20316;-90
2023/12/08 00:28:25;;;;;;;14.60;10.07;;;;;;;0.91;100.00;100730.09;1029095;28;20697;-90
2023/12/08 00:28:57;;;;;;;15.70;10.98;;;;;;;0.76;100.00;100731.63;1033660;28;20305;-90
2023/12/08 00:29:28;;;;;;;12.18;10.23;;;;;;;0.85;100.00;100726.28;1031693;28;20307;-90
2023/12/08 00:30:00;;;;;;;13.00;10.40;;;;;;;0.85;100.00;100723.66;1033117;28;20794;-90
2023/12/08 00:30:31;;;;;;;14.25;10.13;;;;;;;0.86;100.00;100722.69;1033829;28;20301;-89
2023/12/08 00:31:04;;;;;;;12.32;10.27;;;;;;;1.00;100.00;100720.44;1033348;28;20316;-90
2023/12/08 00:31:35;;;;;;;15.80;11.10;;;;;;;0.99;100.00;100716.19;1030070;28;20330;-90
2023/12/08 00:32:07;;;;;;;13.77;11.07;;;;;;;0.99;100.00;100713.56;1029600;28;20313;-90
2023/12/08 00:32:38;;;;;;;14.10;10.40;;;;;;;1.06;100.00;100709.31;1037635;28;20312;-91
2023/12/08 00:33:10;;;;;;;19.95;11.00;;;;;;;0.95;100.00;100705.19;1037234;28;20359;-90
2023/12/08 00:33:43;;;;;;;15.85;10.05;;;;;;;1.02;100.00;100710.63;1037032;28;20991;-90
2023/12/08 00:34:15;;;;;;;14.57;10.40;;;;;;;1.00;100.00;100708.16;1033088;28;20722;-91
2023/12/08 00:34:47;;;;;;;14.20;10.25;;;;;;;0.85;100.00;100710.56;1026021;28;20303;-91
2023/12/08 00:35:18;;;;;;;13.80;10.48;;;;;;;0.88;100.00;100710.25;1034063;28;20308;-91
2023/12/08 00:35:50;;;;;;;12.15;10.18;;;;;;;1.01;100.00;100703.72;1037019;28;20300;-90
2023/12/08 00:36:22;;;;;;;12.80;10.35;;;;;;;0.93;100.00;100707.97;1034061;28;20343;-90
2023/12/08 00:36:54;;;;;;;14.02;11.40;;;;;;;0.83;100.00;100696.78;1029457;28;20301;-91
2023/12/08 00:37:25;;;;;;;14.75;10.68;;;;;;;0.99;100.00;100695.19;1029652;28;20302;-90
2023/12/08 00:37:57;;;;;;;10.88;9.75;;;;;;;1.00;100.00;100691.59;1034746;28;20699;-91
2023/12/08 00:38:29;;;;;;;12.65;10.38;;;;;;;0.99;100.00;100695.19;1035594;28;20411;-91
2023/12/08 00:39:01;;;;;;;13.68;12.20;;;;;;;1.04;100.00;100687.69;1031425;28;20357;-91
2023/12/08 00:39:32;;;;;;;13.85;11.02;;;;;;;1.02;100.00;100693.09;1033850;28;20824;-90
2023/12/08 00:40:05;;;;;;;13.95;10.35;;;;;;;0.99;100.00;100688.16;1033214;28;20324;-91
2023/12/08 00:40:37;;;;;;;14.65;10.32;;;;;;;0.88;100.00;100689.28;1030151;28;20646;-91
2023/12/08 00:41:09;;;;;;;12.85;11.25;;;;;;;0.86;100.00;100685.16;1024566;29;20294;-91
2023/12/08 00:41:41;;;;;;;13.15;9.75;;;;;;;0.99;100.00;100684.72;1033796;28;20309;-91
2023/12/08 00:42:12;;;;;;;14.95;10.35;;;;;;;1.00;100.00;100687.19;1030085;28;20310;-91
2023/12/08 00:42:44;;;;;;;14.82;11.02;;;;;;;1.04;100.00;100687.69;1030350;28;20364;-90
2023/12/08 00:43:16;;;;;;;12.48;10.27;;;;;;;1.02;100.00;100684.41;1032831;28;20310;-90
2023/12/08 00:43:47;;;;;;;11.23;10.13;;;;;;;1.03;100.00;100680.78;1034495;28;20293;-91
2023/12/08 00:44:19;;;;;;;14.80;10.48;;;;;;;0.99;100.00;100689.97;1040392;28;20288;-91
2023/12/08 00:44:50;;;;;;;11.75;10.05;;;;;;;0.97;100.00;100684.06;1038060;28;20301;-90
2023/12/08 00:45:22;;;;;;;11.85;10.48;;;;;;;0.89;100.00;100690.91;1037206;28;20384;-90
2023/12/08 00:45:53;;;;;;;13.10;10.75;;;;;;;0.97;100.00;100684.88;1037031;28;20319;-90
2023/12/08 00:46:25;;;;;;;13.07;10.48;;;;;;;1.02;100.00;100684.41;1039752;28;20303;-90
2023/12/08 00:46:56;;;;;;;13.77;11.40;;;;;;;1.02;100.00;100689.63;1035815;28;20308;-90
2023/12/08 00:47:28;;;;;;;13.30;10.48;;;;;;;0.83;100.00;100685.47;1032837;28;20302;-89
2023/12/08 00:48:00;;;;;;;13.20;9.95;;;;;;;0.81;100.00;100682.16;1039117;28;20357;-90
2023/12/08 00:48:32;;;;;;;13.05;10.13;;;;;;;0.81;100.00;100685.59;1036306;28;20292;-91
2023/12/08 00:49:04;;;;;;;14.52;10.23;;;;;;;0.83;100.00;100680.25;1029931;28;20306;-90
2023/12/08 00:49:36;;;;;;;12.73;10.40;;;;;;;0.69;100.00;100694.72;1026478;28;20310;-90
2023/12/08 00:50:08;;;;;;;14.63;10.88;;;;;;;0.84;100.00;100687.94;1029668;28;20298;-90
2023/12/08 00:50:39;;;;;;;10.77;9.52;;;;;;;0.95;100.00;100691.25;1028663;28;20298;-90
2023/12/08 00:51:12;;;;;;;10.48;9.10;;;;;;;0.91;100.00;100688.94;1033896;28;21122;-90
2023/12/08 00:51:44;;;;;;;11.70;9.63;;;;;;;0.84;100.00;100687.13;1034761;28;20312;-90
2023/12/08 00:52:16;;;;;;;14.05;10.88;;;;;;;1.04;100.00;100682.44;1031841;28;20308;-89
2023/12/08 00:52:47;;;;;;;12.00;9.85;;;;;;;1.02;100.00;100685.22;1029259;28;20669;-90
2023/12/08 00:53:19;;;;;;;14.45;10.32;;;;;;;1.02;100.00;100684.41;1033774;28;20294;-90
2023/12/08 00:53:50;;;;;;;13.90;11.63;;;;;;;1.06;100.00;100685.72;1037123;28;20381;-90
2023/12/08 00:54:22;;;;;;;16.85;10.88;;;;;;;1.09;100.00;100686.22;1037068;28;20333;-90
2023/12/08 00:54:53;;;;;;;12.07;10.52;;;;;;;0.98;100.00;100675.22;1037542;28;20308;-90
2023/12/08 00:55:25;;;;;;;12.13;9.80;;;;;;;0.86;100.00;100674.69;1033038;28;20580;-91
2023/12/08 00:55:56;;;;;;;16.63;10.48;;;;;;;0.87;100.00;100681.56;1033981;28;20294;-90
2023/12/08 00:56:28;;;;;;;13.40;11.40;;;;;;;0.96;100.00;100674.53;1025839;28;20298;-90
2023/12/08 00:57:00;;;;;;;18.80;10.85;;;;;;;0.93;100.00;100666.00;1029178;28;20302;-91
2023/12/08 00:57:31;;;;;;;11.93;10.63;;;;;;;0.98;100.00;100673.41;1030988;28;20298;-90
2023/12/08 00:58:03;;;;;;;16.33;11.50;;;;;;;1.09;100.00;100667.03;1031107;28;20303;-90
2023/12/08 00:58:36;;;;;;;13.27;9.43;;;;;;;0.99;100.00;100666.34;1031782;28;20305;-89
2023/12/08 00:59:07;;;;;;;14.90;10.68;;;;;;;0.85;100.00;100668.59;1028366;28;20326;-91
2023/12/08 00:59:39;;;;;;;12.45;9.98;;;;;;;0.99;100.00;100658.50;1033679;28;20320;-90
2023/12/08 01:00:11;;;;;;;14.63;10.77;;;;;;;0.89;100.00;100663.88;1030309;28;20297;-90
2023/12/08 01:00:45;;;;;;;12.80;10.77;;;;;;;0.96;100.00;100661.44;1030868;28;20294;-90
2023/12/08 01:01:19;;;;;;;12.18;10.45;;;;;;;0.91;100.00;100662.72;1030419;28;20305;-90
2023/12/08 01:01:51;;;;;;;13.07;10.07;;;;;;;1.01;100.00;100661.78;1029587;28;20305;-90
2023/12/08 01:02:22;;;;;;;14.10;11.95;;;;;;;1.03;100.00;100671.13;1034794;28;20293;-89
2023/12/08 01:02:54;;;;;;;14.88;10.70;;;;;;;0.92;100.00;100667.00;1035071;28;20293;-90
2023/12/08 01:03:26;;;;;;;13.15;10.07;;;;;;;0.95;100.00;100667.66;1032307;28;20312;-89
2023/12/08 01:03:58;;;;;;;12.15;9.75;;;;;;;1.00;100.00;100665.38;1032221;28;20301;-90
2023/12/08 01:04:30;;;;;;;12.63;10.07;;;;;;;0.98;100.00;100673.41;1032444;28;20301;-90
2023/12/08 01:05:02;;;;;;;13.65;9.70;;;;;;;1.09;100.00;100674.91;1032985;28;20301;-90
2023/12/08 01:05:34;;;;;;;13.13;10.25;;;;;;;1.04;100.00;100671.94;1029424;28;20338;-90
2023/12/08 01:06:05;;;;;;;11.75;10.55;;;;;;;0.97;100.00;100668.31;1033730;28;20282;-90
2023/12/08 01:06:37;;;;;;;14.82;10.48;;;;;;;1.08;100.00;100663.59;1032489;28;20369;-90
2023/12/08 01:07:09;;;;;;;13.20;11.30;;;;;;;0.99;100.00;100658.50;1028754;28;20304;-90
2023/12/08 01:07:41;;;;;;;11.65;10.45;;;;;;;1.06;100.00;100654.25;1025734;29;20305;-90
2023/12/08 01:08:12;;;;;;;10.90;9.77;;;;;;;1.01;100.00;100659.16;1030201;28;20312;-90
2023/12/08 01:08:44;;;;;;;11.68;10.10;;;;;;;0.98;100.00;100654.22;1035546;28;20379;-90
2023/12/08 01:09:16;;;;;;;15.65;11.73;;;;;;;1.07;100.00;100655.88;1033650;28;20301;-89
2023/12/08 01:09:47;;;;;;;14.98;11.48;;;;;;;1.02;100.00;100658.16;1034727;28;20980;-89
2023/12/08 01:10:20;;;;;;;13.68;10.15;;;;;;;0.97;100.00;100655.22;1027073;28;20298;-89
2023/12/08 01:10:52;;;;;;;12.15;10.02;;;;;;;1.09;100.00;100649.50;1026066;28;20298;-90
2023/12/08 01:11:23;;;;;;;13.43;10.45;;;;;;;1.04;100.00;100661.44;1031627;28;20305;-89
2023/12/08 01:11:55;;;;;;;12.15;10.43;;;;;;;1.05;100.00;100652.59;1034526;28;20335;-89
2023/12/08 01:12:27;;;;;;;12.77;9.82;;;;;;;1.12;100.00;100658.88;1033699;28;20780;-90
2023/12/08 01:12:58;;;;;;;12.07;10.68;;;;;;;1.13;100.00;100660.53;1037363;28;20870;-90
2023/12/08 01:13:30;;;;;;;11.35;10.05;;;;;;;1.16;100.00;100655.78;1033571;28;20729;-89
2023/12/08 01:14:01;;;;;;;12.35;9.93;;;;;;;1.16;100.00;100649.72;1033556;28;20316;-90
2023/12/08 01:14:33;;;;;;;12.98;10.80;;;;;;;1.09;100.00;100648.69;1037149;28;20303;-90
2023/12/08 01:15:05;;;;;;;12.90;10.18;;;;;;;1.10;100.00;100655.59;1037710;28;20308;-91
2023/12/08 01:15:37;;;;;;;13.88;10.77;;;;;;;0.97;100.00;100658.66;1035633;28;20293;-92
2023/12/08 01:16:09;;;;;;;12.18;10.10;;;;;;;0.88;100.00;100652.56;1037082;28;20352;-90
2023/12/08 01:16:41;;;;;;;11.52;10.00;;;;;;;1.00;100.00;100660.13;1032615;28;20840;-91
2023/12/08 01:17:12;;;;;;;12.98;10.75;;;;;;;1.00;100.00;100660.13;1033185;28;20304;-90
2023/12/08 01:17:44;;;;;;;13.02;10.10;;;;;;;0.97;100.00;100655.22;1037452;28;20357;-90
2023/12/08 01:18:15;;;;;;;13.50;10.90;;;;;;;0.98;100.00;100659.47;1028537;28;20310;-90
2023/12/08 01:18:47;;;;;;;13.65;10.88;;;;;;;1.06;100.00;100655.06;1027661;28;20299;-90
2023/12/08 01:19:19;;;;;;;12.95;9.65;;;;;;;1.06;100.00;100662.13;1032022;28;20310;-91
2023/12/08 01:19:51;;;;;;;12.52;10.80;;;;;;;1.02;100.00;100661.63;1034463;28;20358;-90
2023/12/08 01:20:23;;;;;;;15.15;11.25;;;;;;;1.02;100.00;100660.78;1033964;28;20668;-90
2023/12/08 01:20:54;;;;;;;12.68;10.30;;;;;;;1.04;100.00;100656.22;1029396;28;20302;-90
2023/12/08 01:21:26;;;;;;;12.75;9.98;;;;;;;1.01;100.00;100648.66;1029664;28;20397;-90
2023/12/08 01:21:57;;;;;;;12.82;10.25;;;;;;;1.00;100.00;100649.63;1027253;28;20306;-90
2023/12/08 01:22:29;;;;;;;16.48;10.90;;;;;;;0.95;100.00;100649.31;1029178;28;20321;-90
2023/12/08 01:23:00;;;;;;;13.27;11.00;;;;;;;0.92;100.00;100653.88;1035898;28;20309;-90
2023/12/08 01:23:32;;;;;;;16.52;11.18;;;;;;;0.96;100.00;100650.94;1038162;28;20834;-90
2023/12/08 01:24:05;;;;;;;12.63;10.20;;;;;;;0.90;100.00;100649.78;1036976;28;20315;-89
2023/12/08 01:24:38;;;;;;;14.20;9.68;;;;;;;0.87;100.00;100655.34;1031527;28;20337;-90
2023/12/08 01:25:09;;;;;;;11.40;10.20;;;;;;;1.00;100.00;100660.13;1025320;28;20318;-90
2023/12/08 01:25:41;;;;;;;13.32;10.77;;;;;;;1.00;100.00;100647.03;1027995;28;20302;-90
2023/12/08 01:26:12;;;;;;;12.38;10.07;;;;;;;1.11;100.00;100652.81;1030488;28;20627;-91
2023/12/08 01:26:44;;;;;;;12.48;10.43;;;;;;;1.05;100.00;100658.66;1030856;28;21355;-90
2023/12/08 01:27:18;;;;;;;11.77;10.07;;;;;;;0.99;100.00;100650.63;1024231;29;20310;-90
2023/12/08 01:27:49;;;;;;;13.05;10.20;;;;;;;0.89;100.00;100656.00;1032000;28;20391;-90
2023/12/08 01:28:21;;;;;;;13.18;10.73;;;;;;;0.89;100.00;100648.97;1034050;28;20336;-90
2023/12/08 01:28:52;;;;;;;12.52;10.13;;;;;;;1.02;100.00;100658.16;1025404;28;20310;-91
2023/12/08 01:29:24;;;;;;;14.98;10.77;;;;;;;1.02;100.00;100650.31;1029564;28;20306;-90
2023/12/08 01:29:56;;;;;;;11.90;10.00;;;;;;;1.03;100.00;100647.53;1027413;28;20656;-91
2023/12/08 01:30:27;;;;;;;12.70;10.52;;;;;;;1.04;100.00;100645.72;1033072;28;20686;-90
2023/12/08 01:30:59;;;;;;;16.13;11.00;;;;;;;1.12;100.00;100643.13;1032922;28;20695;-90
2023/12/08 01:31:31;;;;;;;14.60;9.90;;;;;;;1.07;100.00;100637.53;1033086;28;20406;-89
2023/12/08 01:32:02;;;;;;;14.40;10.23;;;;;;;1.01;100.00;100635.53;1038054;28;20292;-90
2023/12/08 01:32:34;;;;;;;14.50;9.93;;;;;;;1.05;100.00;100642.13;1029491;28;20297;-90
2023/12/08 01:33:06;;;;;;;10.90;9.48;;;;;;;1.04;100.00;100640.47;1032357;28;20373;-91
2023/12/08 01:33:37;;;;;;;13.10;11.15;;;;;;;1.12;100.00;100648.38;1033812;28;20301;-91
2023/12/08 01:34:09;;;;;;;14.85;11.02;;;;;;;1.10;100.00;100635.44;1030495;28;20691;-90
2023/12/08 01:34:41;;;;;;;13.02;9.38;;;;;;;1.13;100.00;100644.78;1032675;28;20679;-90
2023/12/08 01:35:13;;;;;;;13.57;10.57;;;;;;;1.05;100.00;100642.13;1029125;28;20302;-89
2023/12/08 01:35:44;;;;;;;11.10;9.85;;;;;;;1.06;100.00;100639.31;1033883;28;20320;-89
2023/12/08 01:36:16;;;;;;;12.63;10.23;;;;;;;0.97;100.00;100644.72;1035272;28;20304;-90
2023/12/08 01:37:07;;;;;;;;;;;;;;;1.10;100.00;100645.09;1034780;28;20340;-90
2023/12/08 01:37:39;;;;;;;11.57;9.88;;;;;;;1.06;100.00;100652.44;1038361;28;19930;-90
2023/12/08 01:38:10;;;;;;;11.38;9.50;;;;;;;0.98;100.00;100656.84;1033690;28;20304;-91
2023/12/08 01:38:45;;;;;;;12.05;9.18;;;;;;;1.17;100.00;100651.34;1040686;28;20354;-90
2023/12/08 01:39:17;;;;;;;12.35;9.88;;;;;;;1.16;100.00;100654.94;1035567;28;20294;-91
2023/12/08 01:39:52;;;;;;;14.32;11.25;;;;;;;1.17;100.00;100643.47;1029502;28;20744;-89
2023/12/08 01:40:24;;;;;;;13.65;9.95;;;;;;;1.15;100.00;100642.81;1032093;28;20689;-90
2023/12/08 01:40:56;;;;;;;13.32;10.32;;;;;;;1.12;100.00;100653.63;1030087;28;20305;-90
2023/12/08 01:41:27;;;;;;;14.82;9.35;;;;;;;0.95;100.00;100647.50;1029917;28;20305;-90
2023/12/08 01:41:59;;;;;;;13.02;9.40;;;;;;;1.05;100.00;100653.44;1028329;28;20322;-90
2023/12/08 01:42:31;;;;;;;13.88;10.13;;;;;;;1.08;100.00;100650.47;1024408;28;20294;-90
2023/12/08 01:43:09;;;;;;;13.80;9.95;;;;;;;1.01;100.00;100651.28;1024621;28;20329;-90
2023/12/08 01:43:42;;;;;;;14.95;10.07;;;;;;;1.12;100.00;100643.13;1030296;28;20297;-90
2023/12/08 01:44:13;;;;;;;11.52;9.57;;;;;;;1.02;100.00;100647.69;1029997;28;20302;-90
2023/12/08 01:44:45;;;;;;;14.57;9.70;;;;;;;1.07;100.00;100661.13;1030162;28;20312;-90
2023/12/08 01:45:17;;;;;;;13.43;11.02;;;;;;;1.03;100.00;100657.19;1032924;28;20392;-90
2023/12/08 01:45:48;;;;;;;14.70;10.90;;;;;;;1.08;100.00;100649.66;1025433;28;20290;-90
2023/12/08 01:46:21;;;;;;;12.75;10.25;;;;;;;0.97;100.00;100658.66;1031407;28;20308;-90
2023/12/08 01:46:52;;;;;;;14.73;10.57;;;;;;;0.97;100.00;100658.66;1034777;28;20308;-90
2023/12/08 01:47:24;;;;;;;14.07;11.23;;;;;;;0.93;100.00;100659.94;1031452;28;20317;-90
2023/12/08 01:47:56;;;;;;;12.43;9.77;;;;;;;1.14;100.00;100662.16;1031939;28;20297;-90
2023/12/08 01:48:27;;;;;;;11.77;9.77;;;;;;;1.15;100.00;100658.56;1034739;28;20312;-90
2023/12/08 01:48:59;;;;;;;11.27;9.50;;;;;;;1.09;100.00;100665.22;1038301;28;20392;-88
2023/12/08 01:49:33;;;;;;;12.20;10.20;;;;;;;1.17;100.00;100662.66;1036593;28;20328;-90
2023/12/08 01:50:06;;;;;;;11.60;9.65;;;;;;;1.04;100.00;100664.06;1034928;28;20699;-90
2023/12/08 01:50:38;;;;;;;13.20;10.82;;;;;;;1.07;100.00;100658.50;1033535;28;20294;-88
2023/12/08 01:51:10;;;;;;;15.23;10.65;;;;;;;1.13;100.00;100660.53;1028167;28;20303;-90
2023/12/08 01:51:44;;;;;;;15.07;10.02;;;;;;;1.10;100.00;100668.72;1026153;28;20302;-90
2023/12/08 01:52:21;;;;;;;13.32;10.90;;;;;;;1.08;100.00;100665.41;1031953;28;20446;-90
2023/12/08 01:52:53;;;;;;;12.85;9.98;;;;;;;1.11;100.00;100662.47;1034098;28;21572;-90
2023/12/08 01:53:25;;;;;;;13.05;10.65;;;;;;;1.04;100.00;100662.28;1032538;28;20298;-90
2023/12/08 01:53:56;;;;;;;12.43;10.13;;;;;;;1.13;100.00;100655.28;1027449;28;20307;-89
2023/12/08 01:54:28;;;;;;;16.65;10.45;;;;;;;1.20;100.00;100651.03;1034658;28;20300;-90
2023/12/08 01:55:00;;;;;;;11.48;9.50;;;;;;;1.20;100.00;100648.41;1031887;28;20312;-90
2023/12/08 01:55:33;;;;;;;15.90;10.23;;;;;;;1.21;100.00;100643.00;1029046;28;20309;-90
2023/12/08 01:56:06;;;;;;;12.63;9.93;;;;;;;1.26;100.00;100644.31;1029665;28;20319;-90
2023/12/08 01:56:38;;;;;;;14.13;10.65;;;;;;;1.19;100.00;100649.38;1030816;28;20294;-90
2023/12/08 01:57:10;;;;;;;12.75;9.38;;;;;;;1.18;100.00;100645.13;1034689;28;20306;-90
2023/12/08 01:57:42;;;;;;;14.02;10.43;;;;;;;1.26;100.00;100637.25;1031955;28;20316;-90
2023/12/08 01:58:13;;;;;;;15.35;10.48;;;;;;;1.23;100.00;100640.19;1028021;28;20395;-90
2023/12/08 01:58:45;;;;;;;12.52;9.75;;;;;;;1.14;100.00;100636.75;1029391;28;20298;-90
2023/12/08 01:59:16;;;;;;;11.93;9.60;;;;;;;1.12;100.00;100635.28;1030999;28;20302;-90
2023/12/08 01:59:50;;;;;;;13.07;10.20;;;;;;;1.06;100.00;100639.31;1029107;28;20334;-90
2023/12/08 02:00:22;;;;;;;14.95;9.82;;;;;;;1.10;100.00;100647.72;1029377;28;20715;-90
2023/12/08 02:00:55;;;;;;;11.57;10.35;;;;;;;1.16;100.00;100647.91;1034269;28;20304;-90
2023/12/08 02:01:26;;;;;;;11.48;10.27;;;;;;;1.19;100.00;100644.13;1033482;28;20348;-90
2023/12/08 02:01:58;;;;;;;14.95;10.20;;;;;;;1.27;100.00;100638.91;1032150;28;20305;-90
2023/12/08 02:02:30;;;;;;;13.98;11.65;;;;;;;1.13;100.00;100644.78;1034740;28;20703;-89
2023/12/08 02:03:03;;;;;;;14.60;10.27;;;;;;;1.15;100.00;100638.38;1041681;28;20298;-90
2023/12/08 02:03:35;;;;;;;12.35;10.32;;;;;;;1.10;100.00;100637.22;1033606;28;20345;-89
2023/12/08 02:04:07;;;;;;;14.98;9.52;;;;;;;1.07;100.00;100634.91;1032990;28;20293;-89
2023/12/08 02:04:42;;;;;;;15.48;10.85;;;;;;;1.10;100.00;100630.19;1032295;28;20803;-89
2023/12/08 02:05:16;;;;;;;12.32;10.20;;;;;;;1.18;100.00;100626.75;1031152;28;20294;-90
2023/12/08 02:05:50;;;;;;;12.77;10.30;;;;;;;1.20;100.00;100630.03;1033079;28;20308;-89
2023/12/08 02:06:22;;;;;;;13.23;9.43;;;;;;;1.04;100.00;100629.97;1026624;28;20298;-90
2023/12/08 02:06:54;;;;;;;12.43;10.10;;;;;;;1.18;100.00;100627.56;1028750;28;20309;-90
2023/12/08 02:07:26;;;;;;;13.75;9.60;;;;;;;1.19;100.00;100623.16;1032969;28;20297;-90
2023/12/08 02:07:59;;;;;;;10.80;9.70;;;;;;;1.10;100.00;100624.13;1032590;28;20302;-90
2023/12/08 02:08:31;;;;;;;11.15;9.80;;;;;;;1.11;100.00;100623.13;1023770;28;20306;-90
2023/12/08 02:09:02;;;;;;;12.85;9.77;;;;;;;1.09;100.00;100623.28;1024116;28;20362;-90
2023/12/08 02:09:34;;;;;;;12.75;11.13;;;;;;;1.03;100.00;100623.09;1024197;29;20314;-90
2023/12/08 02:10:07;;;;;;;11.88;9.48;;;;;;;1.15;100.00;100617.41;1036087;28;20434;-90
2023/12/08 02:10:38;;;;;;;13.38;10.32;;;;;;;1.01;100.00;100623.25;1035993;28;20315;-90
2023/12/08 02:11:10;;;;;;;13.45;10.45;;;;;;;1.11;100.00;100623.13;1031491;28;20311;-90
2023/12/08 02:11:44;;;;;;;11.98;9.43;;;;;;;1.17;100.00;100627.75;1041467;28;20296;-90
2023/12/08 02:12:16;;;;;;;13.30;10.25;;;;;;;1.01;100.00;100639.00;1038995;28;20331;-90
2023/12/08 02:12:47;;;;;;;13.30;10.45;;;;;;;1.03;100.00;100638.81;1033917;28;20337;-90
2023/12/08 02:13:20;;;;;;;15.20;11.23;;;;;;;1.02;100.00;100647.69;1029882;28;20309;-90
2023/12/08 02:13:53;;;;;;;14.45;10.80;;;;;;;1.07;100.00;100640.16;1025750;28;20341;-90
2023/12/08 02:14:26;;;;;;;16.65;10.60;;;;;;;1.11;100.00;100626.59;1029703;28;20317;-90
2023/12/08 02:14:58;;;;;;;12.43;9.48;;;;;;;1.20;100.00;100630.03;1030565;28;20385;-90
2023/12/08 02:15:29;;;;;;;13.00;10.98;;;;;;;1.23;100.00;100629.72;1027283;28;20350;-90
2023/12/08 02:16:08;;;;;;;15.77;11.38;;;;;;;1.11;100.00;100626.59;1027126;28;20305;-89
2023/12/08 02:16:43;;;;;;;12.30;10.38;;;;;;;1.15;100.00;100627.06;1031564;28;20312;-89
2023/12/08 02:17:20;;;;;;;11.77;9.55;;;;;;;1.23;100.00;100624.47;1032537;28;20796;-90
2023/12/08 02:17:52;;;;;;;11.38;9.52;;;;;;;1.20;100.00;100635.28;1029424;28;20317;-89
2023/12/08 02:18:24;;;;;;;14.70;10.45;;;;;;;1.10;100.00;100629.38;1025616;28;20302;-90
2023/12/08 02:18:56;;;;;;;12.60;9.90;;;;;;;1.07;100.00;100625.22;1024205;28;20315;-90
2023/12/08 02:19:29;;;;;;;12.32;9.55;;;;;;;1.10;100.00;100632.00;1030691;28;20882;-90
2023/12/08 02:20:03;;;;;;;12.50;9.82;;;;;;;1.05;100.00;100631.63;1033412;28;20903;-90
2023/12/08 02:20:35;;;;;;;14.43;10.23;;;;;;;1.12;100.00;100628.22;1037872;28;20300;-90
2023/12/08 02:21:09;;;;;;;13.07;10.60;;;;;;;1.04;100.00;100625.56;1038341;28;20305;-90
2023/12/08 02:21:41;;;;;;;14.35;10.85;;;;;;;1.09;100.00;100627.69;1032507;28;20328;-90
2023/12/08 02:22:15;;;;;;;14.60;10.30;;;;;;;1.05;100.00;100621.13;1029769;28;20406;-89
2023/12/08 02:22:47;;;;;;;11.63;10.40;;;;;;;1.08;100.00;100631.28;1033523;28;20679;-90
2023/12/08 02:23:18;;;;;;;13.88;10.45;;;;;;;1.18;100.00;100632.00;1032872;28;20314;-88
2023/12/08 02:23:50;;;;;;;15.30;10.82;;;;;;;1.18;100.00;100621.50;1027237;28;20291;-89
2023/12/08 02:24:22;;;;;;;11.70;9.68;;;;;;;1.22;100.00;100622.81;1031827;28;20634;-89
2023/12/08 02:24:53;;;;;;;15.00;9.77;;;;;;;1.20;100.00;100615.13;1031577;28;20356;-89
2023/12/08 02:25:26;;;;;;;11.52;9.77;;;;;;;1.15;100.00;100616.59;1033295;28;20308;-89
2023/12/08 02:25:57;;;;;;;13.30;10.38;;;;;;;1.09;100.00;100617.19;1032456;28;20304;-89
2023/12/08 02:26:29;;;;;;;11.63;9.98;;;;;;;1.02;100.00;100613.59;1028058;28;20352;-90